createdAt,value
2024-05-09T00:00:18.684Z,74.05
2024-05-09T00:03:13.955Z,74.38
2024-05-09T00:06:01.707Z,74.34
2024-05-09T00:08:49.168Z,74.67
2024-05-09T00:11:36.460Z,75.22
2024-05-09T00:14:23.874Z,75.00
2024-05-09T00:17:11.185Z,75.33
2024-05-09T00:19:58.620Z,75.14
2024-05-09T00:22:45.936Z,74.89
2024-05-09T00:25:33.312Z,75.56
2024-05-09T00:28:20.544Z,75.56
2024-05-09T00:31:07.826Z,75.50
2024-05-09T00:33:55.234Z,75.60
2024-05-09T00:36:42.538Z,75.11
2024-05-09T00:39:29.853Z,75.76
2024-05-09T00:42:17.109Z,75.68
2024-05-09T00:45:06.772Z,75.44
2024-05-09T00:47:54.528Z,76.21
2024-05-09T00:50:45.021Z,75.78
2024-05-09T00:53:34.198Z,75.85
2024-05-09T00:56:22.484Z,76.05
2024-05-09T00:59:10.031Z,75.91
2024-05-09T01:02:00.541Z,75.70
2024-05-09T01:04:48.095Z,76.07
2024-05-09T01:07:35.593Z,75.77
2024-05-09T01:10:28.193Z,75.85
2024-05-09T01:13:21.401Z,76.19
2024-05-09T01:16:08.706Z,76.30
2024-05-09T01:18:56.952Z,76.61
2024-05-09T01:21:44.362Z,76.63
2024-05-09T01:24:31.670Z,76.92
2024-05-09T01:27:19.075Z,76.99
2024-05-09T01:30:09.593Z,76.91
2024-05-09T01:33:02.085Z,77.28
2024-05-09T01:35:49.486Z,77.15
2024-05-09T01:38:36.849Z,77.18
2024-05-09T01:41:24.479Z,77.64
2024-05-09T01:44:11.791Z,77.80
2024-05-09T01:46:59.184Z,77.77
2024-05-09T01:49:46.601Z,78.16
2024-05-09T01:52:38.521Z,77.74
2024-05-09T01:55:25.846Z,78.07
2024-05-09T01:58:13.360Z,78.40
2024-05-09T02:01:02.189Z,78.57
2024-05-09T02:03:49.932Z,78.77
2024-05-09T02:06:43.531Z,79.10
2024-05-09T02:09:30.811Z,79.23
2024-05-09T02:12:18.148Z,79.09
2024-05-09T02:15:06.390Z,79.60
2024-05-09T02:17:54.089Z,79.21
2024-05-09T02:20:42.905Z,79.12
2024-05-09T02:23:30.928Z,78.96
2024-05-09T02:26:18.351Z,79.12
2024-05-09T02:29:05.764Z,79.18
2024-05-09T02:31:53.208Z,79.28
2024-05-09T02:34:40.459Z,79.08
2024-05-09T02:37:27.760Z,79.04
2024-05-09T02:40:21.577Z,79.37
2024-05-09T02:43:13.310Z,78.79
2024-05-09T02:46:00.740Z,79.05
2024-05-09T02:48:48.320Z,79.22
2024-05-09T02:51:35.664Z,78.92
2024-05-09T02:54:23.001Z,78.74
2024-05-09T02:57:10.347Z,78.72
2024-05-09T02:59:57.634Z,78.89
2024-05-09T03:02:45.092Z,79.00
2024-05-09T03:05:32.637Z,78.80
2024-05-09T03:08:19.937Z,79.01
2024-05-09T03:11:07.260Z,78.91
2024-05-09T03:13:55.252Z,78.71
2024-05-09T03:16:42.541Z,78.51
2024-05-09T03:19:29.896Z,78.78
2024-05-09T03:22:17.362Z,78.61
2024-05-09T03:25:05.052Z,78.94
2024-05-09T03:27:53.549Z,79.04
2024-05-09T03:30:42.990Z,78.94
2024-05-09T03:33:30.868Z,79.14
2024-05-09T03:36:18.306Z,78.97
2024-05-09T03:39:05.588Z,79.33
2024-05-09T03:41:52.867Z,79.16
2024-05-09T03:44:40.383Z,79.25
2024-05-09T03:47:27.969Z,79.07
2024-05-09T03:50:22.150Z,78.97
2024-05-09T03:53:14.840Z,78.99
2024-05-09T03:56:03.802Z,78.96
2024-05-09T03:58:51.300Z,78.89
2024-05-09T04:01:38.699Z,79.27
2024-05-09T04:04:25.999Z,78.99
2024-05-09T04:07:13.265Z,79.00
2024-05-09T04:10:00.570Z,79.40
2024-05-09T04:12:47.805Z,79.54
2024-05-09T04:15:35.182Z,79.43
2024-05-09T04:18:22.577Z,79.37
2024-05-09T04:21:10.032Z,79.63
2024-05-09T04:23:57.346Z,79.16
2024-05-09T04:26:44.556Z,79.52
2024-05-09T04:29:32.292Z,79.66
2024-05-09T04:32:19.698Z,79.63
2024-05-09T04:35:07.178Z,79.55
2024-05-09T04:37:54.581Z,79.26
2024-05-09T04:40:42.056Z,79.25
2024-05-09T04:43:29.303Z,79.40
2024-05-09T04:46:16.647Z,79.60
2024-05-09T04:49:04.140Z,79.65
2024-05-09T04:51:51.496Z,79.84
2024-05-09T04:54:38.772Z,79.82
2024-05-09T04:57:26.024Z,79.82
2024-05-09T05:00:15.001Z,79.88
2024-05-09T05:03:14.292Z,79.73
2024-05-09T05:06:03.461Z,80.06
2024-05-09T05:08:51.302Z,80.08
2024-05-09T05:11:38.700Z,80.15
2024-05-09T05:14:26.022Z,80.18
2024-05-09T05:17:13.333Z,79.99
2024-05-09T05:20:00.757Z,80.64
2024-05-09T05:22:48.142Z,80.62
2024-05-09T05:25:35.414Z,80.69
2024-05-09T05:28:23.538Z,80.58
2024-05-09T05:31:11.080Z,80.87
2024-05-09T05:33:58.493Z,81.07
2024-05-09T05:36:45.849Z,80.90
2024-05-09T05:39:33.158Z,80.19
2024-05-09T05:42:20.517Z,80.19
2024-05-09T05:45:09.966Z,79.99
2024-05-09T05:47:57.573Z,79.76
2024-05-09T05:50:45.419Z,79.98
2024-05-09T05:53:32.879Z,80.11
2024-05-09T05:56:20.357Z,79.82
2024-05-09T05:59:08.367Z,80.10
2024-05-09T06:01:55.813Z,80.14
2024-05-09T06:04:43.410Z,80.04
2024-05-09T06:07:30.760Z,79.80
2024-05-09T06:10:25.143Z,79.86
2024-05-09T06:13:14.423Z,80.07
2024-05-09T06:16:02.489Z,79.89
2024-05-09T06:18:50.057Z,80.01
2024-05-09T06:21:37.392Z,80.27
2024-05-09T06:24:24.699Z,80.33
2024-05-09T06:27:11.958Z,79.81
2024-05-09T06:29:59.325Z,79.58
2024-05-09T06:32:46.796Z,79.73
2024-05-09T06:35:34.399Z,79.66
2024-05-09T06:38:21.920Z,79.59
2024-05-09T06:41:09.393Z,79.61
2024-05-09T06:43:56.870Z,78.70
2024-05-09T06:46:45.438Z,78.26
2024-05-09T06:49:33.112Z,78.13
2024-05-09T06:52:20.455Z,77.87
2024-05-09T06:55:07.788Z,77.97
2024-05-09T06:57:55.095Z,77.60
2024-05-09T07:00:42.636Z,77.59
2024-05-09T07:03:30.629Z,77.41
2024-05-09T07:06:17.984Z,77.26
2024-05-09T07:09:05.310Z,76.78
2024-05-09T07:11:52.618Z,76.31
2024-05-09T07:14:40.121Z,75.14
2024-05-09T07:17:27.673Z,73.31
2024-05-09T07:20:22.959Z,71.84
2024-05-09T07:23:16.131Z,69.34
2024-05-09T07:26:03.669Z,66.85
2024-05-09T07:28:51.000Z,66.66
2024-05-09T07:31:38.407Z,65.25
2024-05-09T07:34:25.880Z,62.27
2024-05-09T07:37:14.207Z,62.28
2024-05-09T07:40:01.693Z,60.37
2024-05-09T07:42:48.951Z,58.81
2024-05-09T07:50:00.225Z,56.94
2024-05-09T07:53:14.063Z,54.65
2024-05-09T07:54:45.305Z,49.58
2024-05-09T07:57:32.779Z,45.94
2024-05-09T08:00:26.833Z,43.50
2024-05-09T08:03:17.007Z,44.25
2024-05-09T08:06:04.745Z,45.85
2024-05-09T08:08:52.073Z,42.57
2024-05-09T08:11:39.377Z,44.34
2024-05-09T08:14:27.638Z,45.04
2024-05-09T08:17:15.065Z,43.97
2024-05-09T08:20:05.407Z,43.08
2024-05-09T08:22:52.802Z,43.29
2024-05-09T08:25:40.195Z,42.90
2024-05-09T08:28:27.528Z,41.18
2024-05-09T08:31:15.253Z,41.54
2024-05-09T08:34:03.290Z,40.32
2024-05-09T08:36:51.939Z,39.17
2024-05-09T08:39:39.318Z,39.56
2024-05-09T08:42:32.164Z,39.16
2024-05-09T08:45:19.584Z,40.11
2024-05-09T08:48:08.924Z,40.36
2024-05-09T08:50:59.494Z,39.97
2024-05-09T08:53:46.959Z,40.04
2024-05-09T08:56:35.617Z,36.23
2024-05-09T08:59:44.431Z,37.39
2024-05-09T09:02:33.125Z,38.75
2024-05-09T09:05:28.154Z,39.82
2024-05-09T09:08:16.504Z,39.92
2024-05-09T09:11:04.324Z,40.35
2024-05-09T09:13:51.637Z,40.37
2024-05-09T09:16:38.936Z,39.35
2024-05-09T09:19:26.344Z,39.24
2024-05-09T09:22:15.248Z,39.95
2024-05-09T09:25:02.637Z,40.04
2024-05-09T09:27:50.304Z,39.96
2024-05-09T09:30:42.448Z,40.94
2024-05-09T09:33:35.609Z,41.50
2024-05-09T09:36:23.195Z,41.47
2024-05-09T09:39:14.484Z,41.58
2024-05-09T09:42:04.602Z,41.84
2024-05-09T09:45:02.090Z,41.31
2024-05-09T09:47:57.257Z,41.58
2024-05-09T09:50:47.364Z,41.48
2024-05-09T09:53:38.521Z,41.39
2024-05-09T09:56:28.359Z,41.47
2024-05-09T09:59:16.759Z,41.56
2024-05-09T10:02:04.414Z,41.21
2024-05-09T10:04:52.300Z,41.23
2024-05-09T10:07:43.705Z,41.50
2024-05-09T10:10:35.653Z,42.02
2024-05-09T10:13:33.752Z,42.23
2024-05-09T10:16:23.251Z,42.36
2024-05-09T10:19:31.141Z,42.87
2024-05-09T10:22:28.691Z,42.94
2024-05-09T10:25:17.034Z,42.34
2024-05-09T10:28:05.074Z,42.25
2024-05-09T10:31:14.047Z,42.63
2024-05-09T10:34:02.698Z,38.95
2024-05-09T10:36:55.144Z,39.22
2024-05-09T10:39:42.998Z,40.25
2024-05-09T10:42:31.021Z,40.74
2024-05-09T10:45:18.536Z,40.89
2024-05-09T10:48:07.141Z,40.64
2024-05-09T10:50:54.953Z,40.73
2024-05-09T10:53:43.785Z,39.58
2024-05-09T10:56:31.347Z,39.34
2024-05-09T10:59:18.593Z,40.08
2024-05-09T11:02:10.812Z,40.34
2024-05-09T11:04:58.408Z,38.54
2024-05-09T11:07:45.895Z,39.50
2024-05-09T11:10:34.443Z,39.73
2024-05-09T11:13:32.279Z,39.08
2024-05-09T11:16:21.626Z,39.89
2024-05-09T11:19:14.169Z,39.54
2024-05-09T11:22:02.192Z,39.15
2024-05-09T11:24:49.778Z,36.93
2024-05-09T11:27:37.180Z,37.34
2024-05-09T11:30:30.065Z,36.33
2024-05-09T11:33:19.882Z,36.11
2024-05-09T11:36:09.351Z,32.22
2024-05-09T11:38:56.756Z,31.82
2024-05-09T11:41:44.030Z,32.79
2024-05-09T11:44:31.367Z,33.45
2024-05-09T11:47:18.842Z,34.76
2024-05-09T11:50:08.234Z,34.72
2024-05-09T11:52:57.587Z,34.28
2024-05-09T11:55:44.963Z,31.40
2024-05-09T11:58:34.740Z,31.25
2024-05-09T12:01:25.111Z,30.94
2024-05-09T12:04:13.754Z,31.78
2024-05-09T12:07:01.402Z,31.88
2024-05-09T12:09:48.742Z,29.90
2024-05-09T12:12:37.526Z,29.99
2024-05-09T12:15:24.951Z,31.11
2024-05-09T12:18:12.321Z,31.43
2024-05-09T12:21:03.105Z,30.72
2024-05-09T12:23:50.685Z,30.71
2024-05-09T12:26:38.082Z,30.91
2024-05-09T12:29:26.405Z,31.18
2024-05-09T12:32:13.795Z,30.97
2024-05-09T12:35:01.053Z,31.43
2024-05-09T12:37:48.444Z,31.82
2024-05-09T12:40:38.408Z,32.74
2024-05-09T12:43:26.792Z,32.19
2024-05-09T12:46:14.396Z,32.93
2024-05-09T12:49:01.906Z,32.86
2024-05-09T12:51:49.377Z,33.20
2024-05-09T12:54:37.402Z,33.31
2024-05-09T12:57:25.856Z,31.22
2024-05-09T13:00:23.262Z,30.13
2024-05-09T13:03:15.467Z,30.65
2024-05-09T13:06:02.970Z,31.84
2024-05-09T13:08:50.413Z,30.47
2024-05-09T13:11:38.107Z,30.65
2024-05-09T13:14:25.603Z,30.81
2024-05-09T13:17:13.024Z,29.87
2024-05-09T13:20:00.431Z,29.93
2024-05-09T13:22:48.704Z,30.94
2024-05-09T13:25:39.099Z,30.87
2024-05-09T13:28:26.857Z,31.18
2024-05-09T13:31:15.212Z,31.84
2024-05-09T13:34:02.691Z,33.03
2024-05-09T13:36:50.376Z,33.27
2024-05-09T13:39:37.789Z,33.66
2024-05-09T13:42:25.157Z,33.79
2024-05-09T13:45:12.783Z,33.54
2024-05-09T13:48:00.928Z,34.05
2024-05-09T13:50:48.598Z,34.30
2024-05-09T13:53:35.955Z,34.29
2024-05-09T13:56:23.390Z,34.59
2024-05-09T13:59:10.996Z,34.59
2024-05-09T14:01:58.699Z,34.97
2024-05-09T14:04:46.167Z,35.56
2024-05-09T14:07:33.625Z,35.71
2024-05-09T14:10:26.210Z,35.99
2024-05-09T14:13:18.631Z,36.24
2024-05-09T14:16:06.857Z,36.06
2024-05-09T14:18:54.287Z,36.01
2024-05-09T14:21:41.644Z,36.42
2024-05-09T14:24:28.948Z,36.70
2024-05-09T14:27:16.421Z,37.20
2024-05-09T14:30:07.327Z,37.30
2024-05-09T14:32:56.904Z,37.35
2024-05-09T14:35:44.447Z,37.83
2024-05-09T14:38:31.943Z,38.14
2024-05-09T14:41:19.699Z,37.99
2024-05-09T14:44:07.554Z,38.44
2024-05-09T14:46:54.959Z,37.88
2024-05-09T14:49:42.588Z,38.27
2024-05-09T14:52:29.920Z,38.19
2024-05-09T14:55:17.314Z,38.27
2024-05-09T14:58:07.376Z,38.31
2024-05-09T15:00:55.109Z,38.59
2024-05-09T15:03:42.700Z,38.89
2024-05-09T15:06:30.329Z,39.20
2024-05-09T15:09:17.839Z,38.93
2024-05-09T15:12:05.537Z,38.94
2024-05-09T15:14:52.880Z,39.09
2024-05-09T15:17:40.837Z,39.45
2024-05-09T15:20:34.563Z,39.19
2024-05-09T15:23:24.153Z,39.48
2024-05-09T15:26:11.855Z,39.13
2024-05-09T15:28:59.362Z,39.09
2024-05-09T15:31:46.635Z,39.42
2024-05-09T15:34:34.067Z,39.11
2024-05-09T15:37:22.549Z,38.81
2024-05-09T15:40:15.338Z,38.93
2024-05-09T15:43:11.255Z,39.14
2024-05-09T15:45:59.398Z,38.84
2024-05-09T15:48:47.184Z,39.13
2024-05-09T15:51:34.981Z,39.27
2024-05-09T15:54:23.688Z,38.39
2024-05-09T15:57:12.900Z,38.31
2024-05-09T16:00:00.379Z,38.75
2024-05-09T16:02:47.891Z,38.33
2024-05-09T16:05:35.563Z,38.80
2024-05-09T16:08:23.495Z,38.78
2024-05-09T16:11:10.921Z,38.62
2024-05-09T16:13:58.323Z,39.30
2024-05-09T16:16:46.143Z,39.38
2024-05-09T16:19:33.733Z,39.44
2024-05-09T16:22:21.043Z,39.90
2024-05-09T16:25:08.387Z,39.68
2024-05-09T16:27:55.802Z,39.63
2024-05-09T16:30:43.301Z,39.71
2024-05-09T16:33:31.223Z,39.46
2024-05-09T16:36:18.764Z,39.21
2024-05-09T16:39:06.064Z,39.67
2024-05-09T16:41:53.340Z,39.69
2024-05-09T16:44:40.646Z,39.98
2024-05-09T16:47:28.331Z,40.27
2024-05-09T16:50:19.266Z,40.48
2024-05-09T16:53:09.626Z,40.63
2024-05-09T16:55:56.976Z,40.66
2024-05-09T16:58:44.290Z,40.28
2024-05-09T17:01:31.742Z,40.49
2024-05-09T17:04:19.442Z,40.40
2024-05-09T17:07:06.969Z,40.32
2024-05-09T17:09:54.611Z,41.11
2024-05-09T17:12:43.470Z,41.22
2024-05-09T17:15:31.096Z,40.83
2024-05-09T17:18:18.728Z,40.66
2024-05-09T17:21:06.313Z,40.76
2024-05-09T17:23:55.660Z,41.32
2024-05-09T17:26:42.979Z,41.39
2024-05-09T17:29:30.694Z,41.57
2024-05-09T17:32:18.095Z,41.71
2024-05-09T17:35:06.173Z,41.95
2024-05-09T17:37:53.709Z,41.83
2024-05-09T17:40:41.218Z,41.71
2024-05-09T17:43:28.900Z,41.60
2024-05-09T17:46:16.460Z,41.85
2024-05-09T17:49:04.402Z,42.24
2024-05-09T17:51:55.554Z,42.77
2024-05-09T17:54:42.872Z,42.33
2024-05-09T17:57:30.305Z,42.67
2024-05-09T18:00:28.542Z,42.87
2024-05-09T18:03:24.134Z,42.70
2024-05-09T18:06:11.481Z,42.75
2024-05-09T18:08:58.681Z,43.06
2024-05-09T18:11:46.266Z,43.10
2024-05-09T18:14:33.616Z,42.93
2024-05-09T18:17:23.635Z,42.82
2024-05-09T18:20:19.694Z,42.91
2024-05-09T18:23:18.003Z,43.06
2024-05-09T18:26:06.221Z,43.41
2024-05-09T18:28:53.573Z,43.33
2024-05-09T18:31:40.861Z,43.19
2024-05-09T18:34:28.282Z,43.43
2024-05-09T18:37:15.740Z,43.58
2024-05-09T18:40:03.403Z,43.82
2024-05-09T18:42:51.793Z,43.79
2024-05-09T18:45:39.783Z,43.59
2024-05-09T18:48:27.351Z,44.10
2024-05-09T18:51:14.807Z,44.24
2024-05-09T18:54:02.152Z,44.35
2024-05-09T18:56:49.503Z,44.07
2024-05-09T18:59:36.930Z,44.36
2024-05-09T19:02:24.388Z,44.48
2024-05-09T19:05:11.987Z,44.59
2024-05-09T19:07:59.662Z,44.73
2024-05-09T19:10:47.170Z,44.90
2024-05-09T19:13:34.605Z,44.91
2024-05-09T19:16:22.199Z,45.03
2024-05-09T19:19:10.082Z,45.27
2024-05-09T19:21:58.203Z,45.10
2024-05-09T19:24:45.576Z,45.48
2024-05-09T19:27:32.954Z,45.52
2024-05-09T19:30:29.783Z,45.77
2024-05-09T19:33:26.127Z,45.86
2024-05-09T19:36:13.634Z,45.84
2024-05-09T19:39:00.993Z,46.30
2024-05-09T19:41:48.403Z,46.08
2024-05-09T19:44:35.704Z,46.72
2024-05-09T19:47:23.248Z,46.60
2024-05-09T19:50:13.896Z,47.42
2024-05-09T19:53:04.028Z,47.11
2024-05-09T19:55:51.419Z,47.14
2024-05-09T19:58:38.745Z,47.51
2024-05-09T20:01:26.156Z,47.55
2024-05-09T20:04:13.838Z,47.50
2024-05-09T20:07:01.254Z,47.90
2024-05-09T20:09:48.589Z,47.88
2024-05-09T20:12:36.059Z,48.15
2024-05-09T20:15:23.382Z,48.26
2024-05-09T20:18:11.440Z,48.58
2024-05-09T20:21:00.103Z,48.74
2024-05-09T20:23:47.544Z,49.33
2024-05-09T20:26:34.807Z,49.44
2024-05-09T20:29:22.461Z,49.70
2024-05-09T20:32:09.767Z,50.21
2024-05-09T20:34:57.000Z,50.40
2024-05-09T20:37:44.227Z,50.56
2024-05-09T20:40:36.924Z,50.83
2024-05-09T20:43:26.586Z,50.86
2024-05-09T20:46:17.274Z,51.28
2024-05-09T20:49:04.800Z,50.93
2024-05-09T20:51:52.214Z,51.18
2024-05-09T20:54:39.528Z,51.34
2024-05-09T20:57:26.838Z,51.40
2024-05-09T21:00:18.847Z,51.54
2024-05-09T21:03:10.505Z,51.96
2024-05-09T21:05:58.721Z,52.09
2024-05-09T21:08:45.989Z,52.29
2024-05-09T21:11:33.297Z,52.12
2024-05-09T21:14:20.613Z,52.16
2024-05-09T21:17:08.056Z,52.34
2024-05-09T21:19:55.362Z,52.58
2024-05-09T21:22:44.255Z,52.67
2024-05-09T21:25:32.283Z,52.49
2024-05-09T21:28:19.881Z,52.84
2024-05-09T21:31:08.876Z,53.13
2024-05-09T21:33:56.283Z,52.84
2024-05-09T21:36:43.748Z,52.95
2024-05-09T21:39:31.188Z,53.00
2024-05-09T21:42:18.434Z,53.23
2024-05-09T21:45:06.443Z,53.41
2024-05-09T21:47:53.817Z,53.18
2024-05-09T21:50:42.583Z,53.34
2024-05-09T21:53:30.163Z,53.38
2024-05-09T21:56:17.394Z,53.60
2024-05-09T21:59:04.791Z,53.53
2024-05-09T22:01:52.093Z,53.53
2024-05-09T22:04:40.080Z,54.01
2024-05-09T22:07:27.450Z,53.96
2024-05-09T22:10:22.775Z,54.05
2024-05-09T22:13:16.157Z,54.27
2024-05-09T22:16:04.572Z,54.00
2024-05-09T22:18:52.220Z,54.33
2024-05-09T22:21:39.589Z,54.22
2024-05-09T22:24:26.906Z,54.47
2024-05-09T22:27:14.170Z,54.51
2024-05-09T22:30:01.456Z,54.91
2024-05-09T22:32:48.840Z,54.71
2024-05-09T22:35:36.143Z,55.08
2024-05-09T22:38:23.338Z,55.09
2024-05-09T22:41:10.662Z,55.04
2024-05-09T22:43:58.630Z,55.23
2024-05-09T22:46:45.957Z,55.32
2024-05-09T22:49:33.370Z,55.63
2024-05-09T22:52:20.696Z,55.42
2024-05-09T22:55:08.474Z,55.75
2024-05-09T22:57:56.331Z,55.84
2024-05-09T23:00:43.857Z,55.96
2024-05-09T23:03:33.072Z,56.03
2024-05-09T23:06:20.506Z,56.04
2024-05-09T23:09:09.779Z,56.50
2024-05-09T23:11:57.266Z,56.28
2024-05-09T23:14:45.324Z,56.44
2024-05-09T23:17:32.742Z,56.62
2024-05-09T23:20:29.909Z,56.68
2024-05-09T23:23:24.031Z,56.85
2024-05-09T23:26:11.396Z,56.90
2024-05-09T23:28:59.238Z,56.86
2024-05-09T23:31:46.667Z,57.03
2024-05-09T23:34:33.944Z,57.17
2024-05-09T23:37:21.356Z,57.13
2024-05-09T23:40:15.111Z,57.06
2024-05-09T23:43:05.902Z,57.01
2024-05-09T23:45:53.230Z,56.92
2024-05-09T23:48:40.618Z,57.12
2024-05-09T23:51:27.935Z,56.88
2024-05-09T23:54:15.200Z,56.98
2024-05-09T23:57:02.524Z,56.99
2024-05-09T23:59:49.861Z,57.04
